logo
Search for airport 
image banner adimage banner adimage banner ad
image banner ad

VOYK - Yelahanka

Located in , India

ICAO - VOYK, IATA -

Data provided by Airmate  

General information

Coordinates: N13°8'9" E77°36'20"
Elevation is 3047 feet MSL.
 
View others Airports in Karnataka

Operational data

Special qualification required
Current time UTC:
Current local time:
METAR: VOBL 191530Z 12006KT 6000 SCT012 FEW025CB 31/16 Q1013 NOSIG
TAF: TAF VOBL 191400Z 1915/1924 11010KT 6000 SCT015
View NOTAMs / SUP AIP / TFR affecting this airport [VIEW]
Communications frequencies: [VIEW]

Runways:

RWY identifierQFULength (ft)Width (ft)SurfaceLDA (ft)
0991°7203150ASP
27271°7203150ASP

Airport contact information

Address: India

Satellite view of VOYK